Time;durP1;ratioP1;P1;durP2;ratioP2;P2;SDS_P1;SDS_P2;PMS_P1;PMS_P2;Temp;Humidity;BMP_temperature;BMP_pressure;BME280_temperature;BME280_humidity;BME280_pressure;Samples;Min_cycle;Max_cycle;Signal;HPM_P1;HPM_P2
2022/10/08 00:00:16;;;;;;;11.70;2.20;;;;;;;;;;5044474;28;20033;-62
2022/10/08 00:02:42;;;;;;;14.35;1.80;;;;;;;;;;5034562;28;20029;-61
2022/10/08 00:05:09;;;;;;;13.68;2.50;;;;;;;;;;5032974;28;20024;-61
2022/10/08 00:07:36;;;;;;;19.80;2.58;;;;;;;;;;5047294;28;20032;-61
2022/10/08 00:10:05;;;;;;;18.42;3.00;;;;;;;;;;5048501;28;20072;-61
2022/10/08 00:12:31;;;;;;;13.10;2.20;;;;;;;;;;5027353;28;20105;-61
2022/10/08 00:14:57;;;;;;;13.98;2.45;;;;;;;;;;5041740;28;20392;-61
2022/10/08 00:17:23;;;;;;;12.65;2.22;;;;;;;;;;5047733;28;20025;-62
2022/10/08 00:19:49;;;;;;;7.85;1.83;;;;;;;;;;5034060;28;20083;-61
2022/10/08 00:22:15;;;;;;;6.78;1.80;;;;;;;;;;5035631;28;20060;-61
2022/10/08 00:24:41;;;;;;;15.77;2.58;;;;;;;;;;5039329;28;20025;-61
2022/10/08 00:27:07;;;;;;;17.15;2.42;;;;;;;;;;5043295;28;20022;-61
2022/10/08 00:29:33;;;;;;;17.77;3.03;;;;;;;;;;5034550;28;20033;-61
2022/10/08 00:31:59;;;;;;;11.43;2.08;;;;;;;;;;5035283;28;20087;-61
2022/10/08 00:34:26;;;;;;;22.52;2.60;;;;;;;;;;5034874;28;20033;-61
2022/10/08 00:36:53;;;;;;;19.98;2.83;;;;;;;;;;5036145;28;20029;-61
2022/10/08 00:39:20;;;;;;;16.42;3.10;;;;;;;;;;5034771;28;20033;-61
2022/10/08 00:41:48;;;;;;;15.68;2.88;;;;;;;;;;5034440;28;20404;-61
2022/10/08 00:44:33;;;;;;;15.60;3.03;;;;;;;;;;5034222;28;20452;-62
2022/10/08 00:47:00;;;;;;;15.68;3.10;;;;;;;;;;5023560;28;20044;-62
2022/10/08 00:49:26;;;;;;;21.25;3.08;;;;;;;;;;5035041;28;20104;-61
2022/10/08 00:51:54;;;;;;;15.85;2.67;;;;;;;;;;5035678;28;20117;-61
2022/10/08 00:54:21;;;;;;;26.17;3.55;;;;;;;;;;5040003;28;20036;-61
2022/10/08 00:56:48;;;;;;;19.17;2.95;;;;;;;;;;5034441;28;20036;-61
2022/10/08 00:59:15;;;;;;;27.40;3.50;;;;;;;;;;5033611;28;20025;-61
2022/10/08 01:01:42;;;;;;;22.00;4.32;;;;;;;;;;5037042;28;20037;-61
2022/10/08 01:04:09;;;;;;;19.83;4.00;;;;;;;;;;5045641;28;20488;-61
2022/10/08 01:06:54;;;;;;;21.52;4.07;;;;;;;;;;5046620;28;20112;-61
2022/10/08 01:09:33;;;;;;;20.65;5.15;;;;;;;;;;5042960;28;20049;-61
2022/10/08 01:12:11;;;;;;;21.45;4.10;;;;;;;;;;5042514;28;20037;-61
2022/10/08 01:14:43;;;;;;;22.98;3.47;;;;;;;;;;5043542;28;20067;-61
2022/10/08 01:17:15;;;;;;;19.75;3.15;;;;;;;;;;5044737;28;20470;-61
2022/10/08 01:19:47;;;;;;;22.30;3.53;;;;;;;;;;5039312;28;20040;-61
2022/10/08 01:22:13;;;;;;;27.73;4.50;;;;;;;;;;5042521;28;20488;-62
2022/10/08 01:27:39;;;;;;;25.25;3.70;;;;;;;;;;5032362;28;20030;-61
2022/10/08 01:30:09;;;;;;;19.77;3.65;;;;;;;;;;5044905;28;20100;-61
2022/10/08 01:32:41;;;;;;;26.77;3.60;;;;;;;;;;5024173;28;20041;-61
2022/10/08 01:35:10;;;;;;;30.13;4.55;;;;;;;;;;5034256;28;20024;-61
2022/10/08 01:37:38;;;;;;;23.08;3.58;;;;;;;;;;5040234;28;20443;-61
2022/10/08 01:40:08;;;;;;;23.20;3.28;;;;;;;;;;5047204;28;20416;-61
2022/10/08 01:42:35;;;;;;;18.23;3.28;;;;;;;;;;5041201;28;20020;-61
2022/10/08 01:45:04;;;;;;;23.33;3.88;;;;;;;;;;5036251;28;20021;-61
2022/10/08 01:47:31;;;;;;;14.90;2.78;;;;;;;;;;5043112;28;20061;-61
2022/10/08 01:50:03;;;;;;;30.25;5.72;;;;;;;;;;5048443;28;20447;-61
2022/10/08 01:52:37;;;;;;;29.33;4.20;;;;;;;;;;5036538;28;20405;-61
2022/10/08 01:55:05;;;;;;;23.88;3.95;;;;;;;;;;5039143;28;20037;-61
2022/10/08 01:57:33;;;;;;;32.60;4.45;;;;;;;;;;5047951;28;20078;-61
2022/10/08 02:00:02;;;;;;;24.90;4.20;;;;;;;;;;5042421;28;20696;-61
2022/10/08 02:02:38;;;;;;;23.70;4.18;;;;;;;;;;5039111;28;20503;-61
2022/10/08 02:05:05;;;;;;;24.73;4.07;;;;;;;;;;5041729;28;20413;-61
2022/10/08 02:07:32;;;;;;;28.48;4.53;;;;;;;;;;5051165;28;20477;-62
2022/10/08 02:10:09;;;;;;;24.35;4.18;;;;;;;;;;5000714;28;1146951;-61
2022/10/08 02:12:38;;;;;;;25.60;3.92;;;;;;;;;;5042806;28;20056;-61
2022/10/08 02:15:05;;;;;;;25.80;3.97;;;;;;;;;;5049608;28;20021;-61
2022/10/08 02:17:37;;;;;;;17.63;3.78;;;;;;;;;;5042623;28;20030;-62
2022/10/08 02:20:22;;;;;;;33.60;5.93;;;;;;;;;;5043911;28;20083;-61
2022/10/08 02:23:01;;;;;;;24.38;5.22;;;;;;;;;;5044576;28;20108;-61
2022/10/08 02:25:34;;;;;;;21.92;3.72;;;;;;;;;;5033738;28;20037;-62
2022/10/08 02:28:18;;;;;;;22.63;3.53;;;;;;;;;;5033927;28;20025;-61
2022/10/08 02:31:07;;;;;;;19.52;4.03;;;;;;;;;;5036123;28;20128;-61
2022/10/08 02:33:38;;;;;;;20.88;3.67;;;;;;;;;;5025099;28;20048;-61
2022/10/08 02:36:07;;;;;;;18.35;2.90;;;;;;;;;;5033476;28;20034;-61
2022/10/08 02:38:36;;;;;;;19.67;3.90;;;;;;;;;;5031994;28;20033;-61
2022/10/08 02:41:03;;;;;;;27.38;3.67;;;;;;;;;;5032629;28;20031;-61
2022/10/08 02:43:31;;;;;;;15.57;2.45;;;;;;;;;;5032767;28;20116;-61
2022/10/08 02:46:08;;;;;;;21.42;3.03;;;;;;;;;;5032200;28;20025;-61
2022/10/08 02:48:35;;;;;;;23.55;3.70;;;;;;;;;;5032411;28;20030;-61
2022/10/08 02:51:05;;;;;;;17.02;3.70;;;;;;;;;;5032841;28;20055;-62
2022/10/08 02:53:31;;;;;;;17.00;3.17;;;;;;;;;;5035820;28;20470;-61
2022/10/08 02:56:24;;;;;;;21.42;3.38;;;;;;;;;;5039535;28;20108;-61
2022/10/08 02:58:50;;;;;;;22.02;3.45;;;;;;;;;;5043684;28;20029;-61
2022/10/08 03:01:36;;;;;;;17.95;3.42;;;;;;;;;;5035892;28;20029;-61
2022/10/08 03:04:04;;;;;;;15.20;3.10;;;;;;;;;;5030750;28;20036;-61
2022/10/08 03:06:31;;;;;;;22.42;3.40;;;;;;;;;;5048383;28;20392;-62
2022/10/08 03:08:59;;;;;;;28.95;4.05;;;;;;;;;;5022360;28;20156;-61
2022/10/08 03:11:26;;;;;;;25.38;3.90;;;;;;;;;;5038358;28;20036;-61
2022/10/08 03:13:56;;;;;;;28.02;4.75;;;;;;;;;;5048027;28;20404;-61
2022/10/08 03:16:25;;;;;;;19.23;3.00;;;;;;;;;;5051238;28;20112;-61
2022/10/08 03:18:52;;;;;;;13.02;3.20;;;;;;;;;;5037775;28;20033;-61
2022/10/08 03:21:18;;;;;;;29.58;4.03;;;;;;;;;;5037489;28;20075;-61
2022/10/08 03:23:44;;;;;;;21.70;2.60;;;;;;;;;;5044500;28;20021;-61
2022/10/08 03:26:11;;;;;;;15.73;2.50;;;;;;;;;;5033680;28;20038;-61
2022/10/08 03:28:37;;;;;;;28.38;3.70;;;;;;;;;;5031584;28;20528;-61
2022/10/08 03:31:04;;;;;;;13.38;2.67;;;;;;;;;;5045444;28;20116;-61
2022/10/08 03:33:30;;;;;;;14.25;2.47;;;;;;;;;;5030627;28;20029;-61
2022/10/08 03:35:58;;;;;;;20.05;3.05;;;;;;;;;;5031169;28;20041;-61
2022/10/08 03:38:24;;;;;;;10.63;2.80;;;;;;;;;;5031499;28;20022;-61
2022/10/08 03:40:57;;;;;;;14.63;2.97;;;;;;;;;;5032150;28;20119;-61
2022/10/08 03:43:23;;;;;;;;;;;;;;;;;;5032615;28;20030;-61
2022/10/08 03:45:52;;;;;;;16.15;2.50;;;;;;;;;;5033170;28;19911;-61
2022/10/08 03:48:19;;;;;;;16.75;2.92;;;;;;;;;;5032264;28;20029;-61
2022/10/08 03:50:52;;;;;;;15.02;2.58;;;;;;;;;;5032823;28;20021;-61
2022/10/08 03:53:19;;;;;;;12.85;2.10;;;;;;;;;;5031920;28;20520;-61
2022/10/08 03:55:45;;;;;;;19.33;3.00;;;;;;;;;;5029351;28;20034;-61
2022/10/08 03:58:11;;;;;;;9.27;3.20;;;;;;;;;;5031463;28;20073;-61
2022/10/08 04:00:37;;;;;;;25.65;3.50;;;;;;;;;;5031136;28;20026;-61
2022/10/08 04:03:03;;;;;;;10.88;2.30;;;;;;;;;;5032144;28;20026;-61
2022/10/08 04:05:29;;;;;;;11.18;2.78;;;;;;;;;;5031978;28;20029;-61
2022/10/08 04:07:55;;;;;;;11.80;2.80;;;;;;;;;;5033384;28;20493;-61
2022/10/08 04:10:21;;;;;;;14.18;3.85;;;;;;;;;;5039290;28;20527;-61
2022/10/08 04:12:48;;;;;;;9.68;2.28;;;;;;;;;;5041680;28;20032;-61
2022/10/08 04:15:14;;;;;;;15.35;2.08;;;;;;;;;;5038408;28;20067;-61
2022/10/08 04:17:40;;;;;;;7.97;2.17;;;;;;;;;;5031149;28;20118;-61
2022/10/08 04:20:06;;;;;;;8.10;1.95;;;;;;;;;;5024649;28;20108;-61
2022/10/08 04:22:33;;;;;;;12.77;1.73;;;;;;;;;;5031391;28;20033;-61
2022/10/08 04:24:59;;;;;;;11.50;2.95;;;;;;;;;;5024412;28;20492;-61
2022/10/08 04:27:25;;;;;;;10.18;2.20;;;;;;;;;;5033027;28;20023;-61
2022/10/08 04:29:51;;;;;;;10.80;1.98;;;;;;;;;;5024660;28;20470;-61
2022/10/08 04:32:17;;;;;;;14.35;2.47;;;;;;;;;;5023463;28;20033;-61
2022/10/08 04:34:43;;;;;;;13.20;2.33;;;;;;;;;;5033785;28;20056;-61
2022/10/08 04:37:09;;;;;;;12.25;2.55;;;;;;;;;;5030845;28;20049;-61
2022/10/08 04:39:35;;;;;;;19.40;2.72;;;;;;;;;;5031500;28;20580;-61
2022/10/08 04:42:01;;;;;;;11.50;1.83;;;;;;;;;;5031329;28;20155;-61
2022/10/08 04:44:28;;;;;;;10.23;2.53;;;;;;;;;;5032686;28;20021;-61
2022/10/08 04:46:54;;;;;;;11.60;1.98;;;;;;;;;;5031423;28;20025;-61
2022/10/08 04:49:20;;;;;;;14.95;3.33;;;;;;;;;;5030948;28;20501;-61
2022/10/08 04:51:46;;;;;;;12.23;2.05;;;;;;;;;;5031212;28;20038;-61
2022/10/08 04:54:12;;;;;;;12.32;2.80;;;;;;;;;;5031534;28;20432;-61
2022/10/08 04:56:38;;;;;;;8.60;1.98;;;;;;;;;;5030791;28;20029;-61
2022/10/08 04:59:04;;;;;;;9.95;2.22;;;;;;;;;;5031416;28;20022;-61
2022/10/08 05:01:30;;;;;;;15.25;3.67;;;;;;;;;;5032217;28;20401;-61
2022/10/08 05:03:57;;;;;;;21.13;4.60;;;;;;;;;;5035227;28;20017;-61
2022/10/08 05:06:25;;;;;;;8.07;1.70;;;;;;;;;;5034448;28;20030;-61
2022/10/08 05:08:52;;;;;;;11.55;1.88;;;;;;;;;;5035062;28;20053;-61
2022/10/08 05:11:18;;;;;;;19.10;2.47;;;;;;;;;;5034049;28;20120;-61
2022/10/08 05:13:48;;;;;;;18.63;2.63;;;;;;;;;;5034764;28;20476;-61
2022/10/08 05:16:16;;;;;;;39.97;4.72;;;;;;;;;;5036998;28;20056;-61
2022/10/08 05:18:43;;;;;;;54.78;5.63;;;;;;;;;;5046368;28;20021;-61
2022/10/08 05:21:13;;;;;;;60.55;6.25;;;;;;;;;;5039119;28;20044;-61
2022/10/08 05:23:41;;;;;;;58.13;5.28;;;;;;;;;;5041392;28;20036;-61
2022/10/08 05:26:27;;;;;;;47.08;5.57;;;;;;;;;;5039554;28;20024;-61
2022/10/08 05:28:54;;;;;;;33.00;3.53;;;;;;;;;;5043227;28;20033;-61
2022/10/08 05:31:21;;;;;;;35.80;3.53;;;;;;;;;;5032865;28;20014;-61
2022/10/08 05:33:47;;;;;;;37.10;3.72;;;;;;;;;;5034031;28;20487;-61
2022/10/08 05:36:18;;;;;;;28.30;3.85;;;;;;;;;;5032355;28;20041;-61
2022/10/08 05:38:44;;;;;;;19.05;3.55;;;;;;;;;;5046952;28;20041;-61
2022/10/08 05:41:10;;;;;;;26.10;3.28;;;;;;;;;;5036294;28;20024;-61
2022/10/08 05:43:36;;;;;;;25.88;3.17;;;;;;;;;;5039657;28;20029;-61
2022/10/08 05:46:03;;;;;;;31.35;3.60;;;;;;;;;;5047629;28;20448;-61
2022/10/08 05:48:29;;;;;;;18.58;3.25;;;;;;;;;;5046650;28;20079;-61
2022/10/08 05:50:55;;;;;;;33.58;4.35;;;;;;;;;;5041160;28;20025;-61
2022/10/08 05:53:21;;;;;;;21.17;3.67;;;;;;;;;;5042468;28;20405;-61
2022/10/08 05:55:47;;;;;;;24.95;4.03;;;;;;;;;;5049453;28;20021;-60
2022/10/08 05:58:13;;;;;;;47.17;4.97;;;;;;;;;;5034955;28;20040;-61
2022/10/08 06:00:39;;;;;;;57.40;6.00;;;;;;;;;;5042902;28;20021;-61
2022/10/08 06:03:05;;;;;;;32.53;4.70;;;;;;;;;;5045886;28;20029;-61
2022/10/08 06:05:31;;;;;;;19.42;4.32;;;;;;;;;;5045600;28;20017;-61
2022/10/08 06:07:58;;;;;;;20.27;4.32;;;;;;;;;;5037694;28;20037;-61
2022/10/08 06:10:24;;;;;;;24.55;3.00;;;;;;;;;;5045347;28;20103;-61
2022/10/08 06:12:51;;;;;;;14.27;4.25;;;;;;;;;;5049524;28;20033;-61
2022/10/08 06:15:17;;;;;;;40.65;4.32;;;;;;;;;;5036060;28;20036;-61
2022/10/08 06:17:43;;;;;;;42.25;4.50;;;;;;;;;;5038638;28;20532;-61
2022/10/08 06:20:09;;;;;;;25.10;3.28;;;;;;;;;;5047952;28;20086;-61
2022/10/08 06:22:35;;;;;;;22.75;4.22;;;;;;;;;;5040164;28;20363;-61
2022/10/08 06:25:01;;;;;;;13.93;3.40;;;;;;;;;;5040911;28;20021;-61
2022/10/08 06:27:27;;;;;;;48.67;6.43;;;;;;;;;;5033946;28;20125;-60
2022/10/08 06:29:53;;;;;;;74.63;8.55;;;;;;;;;;5033070;28;20017;-61
2022/10/08 06:32:19;;;;;;;45.45;6.18;;;;;;;;;;5035024;28;20087;-61
2022/10/08 06:34:45;;;;;;;41.80;6.10;;;;;;;;;;5042817;28;20033;-61
2022/10/08 06:37:12;;;;;;;44.35;6.85;;;;;;;;;;5032414;28;20041;-61
2022/10/08 06:39:38;;;;;;;34.53;4.30;;;;;;;;;;5045366;28;20493;-61
2022/10/08 06:42:04;;;;;;;34.97;3.67;;;;;;;;;;5027177;28;20022;-61
2022/10/08 06:44:36;;;;;;;18.33;2.70;;;;;;;;;;5037530;28;20029;-61
2022/10/08 06:47:02;;;;;;;53.60;3.78;;;;;;;;;;5050625;28;20259;-61
2022/10/08 06:49:28;;;;;;;16.70;2.45;;;;;;;;;;5032553;28;20040;-61
2022/10/08 06:51:54;;;;;;;5.45;1.70;;;;;;;;;;5040804;28;20029;-61
2022/10/08 06:54:20;;;;;;;5.55;1.42;;;;;;;;;;5039621;28;20414;-62
2022/10/08 06:56:46;;;;;;;5.97;1.95;;;;;;;;;;5035374;28;20056;-61
2022/10/08 06:59:12;;;;;;;3.33;1.33;;;;;;;;;;5042226;28;20029;-61
2022/10/08 07:01:39;;;;;;;6.85;1.45;;;;;;;;;;5038116;28;20029;-61
2022/10/08 07:04:05;;;;;;;7.53;1.88;;;;;;;;;;5032074;28;20018;-61
2022/10/08 07:06:31;;;;;;;6.68;1.73;;;;;;;;;;5036944;28;20025;-61
2022/10/08 07:08:59;;;;;;;4.82;1.80;;;;;;;;;;5036774;28;20041;-61
2022/10/08 07:11:25;;;;;;;12.13;2.97;;;;;;;;;;5031077;28;20553;-61
2022/10/08 07:13:51;;;;;;;7.80;2.08;;;;;;;;;;5035442;28;20397;-61
2022/10/08 07:16:22;;;;;;;9.77;2.15;;;;;;;;;;5034926;28;20068;-61
2022/10/08 07:18:49;;;;;;;6.22;2.47;;;;;;;;;;5040097;28;20112;-61
2022/10/08 07:21:15;;;;;;;5.90;2.25;;;;;;;;;;5025026;28;20412;-61
2022/10/08 07:23:42;;;;;;;6.63;3.38;;;;;;;;;;5028636;28;20025;-61
2022/10/08 07:26:10;;;;;;;3.72;1.80;;;;;;;;;;5021799;28;20461;-61
2022/10/08 07:28:37;;;;;;;5.38;2.80;;;;;;;;;;5022106;28;20060;-61
2022/10/08 07:31:05;;;;;;;7.10;3.17;;;;;;;;;;5026444;28;20026;-61
2022/10/08 07:33:31;;;;;;;6.68;2.70;;;;;;;;;;5021493;28;20548;-61
2022/10/08 07:36:05;;;;;;;6.13;2.40;;;;;;;;;;5024244;28;20505;-61
2022/10/08 07:38:31;;;;;;;7.05;3.80;;;;;;;;;;5026376;28;20064;-61
2022/10/08 07:40:57;;;;;;;12.25;2.63;;;;;;;;;;5019126;28;20033;-61
2022/10/08 07:43:23;;;;;;;14.65;2.45;;;;;;;;;;5020196;28;20033;-61
2022/10/08 07:45:50;;;;;;;10.75;2.72;;;;;;;;;;5016136;28;20520;-61
2022/10/08 07:48:18;;;;;;;4.55;2.13;;;;;;;;;;5019053;28;20038;-61
2022/10/08 07:50:45;;;;;;;7.22;2.38;;;;;;;;;;5039263;28;20480;-61
2022/10/08 07:53:11;;;;;;;8.55;2.58;;;;;;;;;;5028655;28;20049;-61
2022/10/08 07:55:37;;;;;;;7.10;2.20;;;;;;;;;;5034677;28;20048;-61
2022/10/08 07:58:04;;;;;;;8.52;2.45;;;;;;;;;;5028526;28;20408;-61
2022/10/08 08:00:30;;;;;;;6.32;2.10;;;;;;;;;;5036703;28;20035;-61
2022/10/08 08:02:56;;;;;;;5.13;2.42;;;;;;;;;;5029647;28;20028;-60
2022/10/08 08:05:22;;;;;;;8.57;2.22;;;;;;;;;;5031590;28;20018;-61
2022/10/08 08:07:48;;;;;;;8.07;2.17;;;;;;;;;;5031250;28;20441;-60
2022/10/08 08:10:15;;;;;;;7.63;3.05;;;;;;;;;;5039271;28;20061;-61
2022/10/08 08:12:41;;;;;;;6.18;2.40;;;;;;;;;;5032726;28;20450;-61
2022/10/08 08:15:07;;;;;;;13.32;3.10;;;;;;;;;;5038945;28;20036;-61
2022/10/08 08:17:36;;;;;;;10.73;2.63;;;;;;;;;;5032536;28;20038;-61
2022/10/08 08:20:02;;;;;;;14.15;3.33;;;;;;;;;;5034584;28;20458;-61
2022/10/08 08:22:29;;;;;;;8.80;3.38;;;;;;;;;;5035499;28;20053;-61
2022/10/08 08:24:55;;;;;;;13.13;4.63;;;;;;;;;;5038329;28;20374;-61
2022/10/08 08:27:21;;;;;;;10.68;3.40;;;;;;;;;;5032787;28;20022;-61
2022/10/08 08:29:47;;;;;;;13.35;3.35;;;;;;;;;;5033489;28;20032;-61
2022/10/08 08:32:14;;;;;;;9.10;3.00;;;;;;;;;;5027807;28;20509;-61
2022/10/08 08:34:40;;;;;;;6.40;2.85;;;;;;;;;;5030390;28;20018;-61
2022/10/08 08:37:06;;;;;;;14.57;3.63;;;;;;;;;;5032424;28;20032;-61
2022/10/08 08:39:32;;;;;;;10.50;2.55;;;;;;;;;;5049476;28;20082;-61
2022/10/08 08:42:17;;;;;;;14.43;2.63;;;;;;;;;;5033569;28;20116;-61
2022/10/08 08:44:46;;;;;;;11.35;2.67;;;;;;;;;;5034784;28;20484;-61
2022/10/08 08:47:15;;;;;;;10.98;2.85;;;;;;;;;;5036973;28;20059;-61
2022/10/08 08:49:47;;;;;;;11.73;3.10;;;;;;;;;;5040047;28;20038;-62
2022/10/08 08:52:15;;;;;;;9.02;2.88;;;;;;;;;;5050250;28;20060;-61
2022/10/08 08:54:42;;;;;;;8.90;2.63;;;;;;;;;;5042634;28;20087;-62
2022/10/08 08:57:12;;;;;;;11.07;3.08;;;;;;;;;;5038028;28;20495;-61
2022/10/08 08:59:44;;;;;;;15.55;3.28;;;;;;;;;;5037526;28;20120;-62
2022/10/08 09:02:24;;;;;;;14.70;2.47;;;;;;;;;;5029448;28;20063;-61
2022/10/08 09:04:51;;;;;;;12.73;2.15;;;;;;;;;;5037187;28;20026;-61
2022/10/08 09:07:20;;;;;;;21.38;2.35;;;;;;;;;;5041570;28;20464;-62
2022/10/08 09:09:48;;;;;;;22.58;2.85;;;;;;;;;;5031302;28;20041;-61
2022/10/08 09:12:37;;;;;;;12.38;2.60;;;;;;;;;;5032501;28;20037;-61
2022/10/08 09:15:04;;;;;;;17.27;2.42;;;;;;;;;;5033564;28;20419;-61
2022/10/08 09:17:32;;;;;;;17.42;3.25;;;;;;;;;;5037445;28;20025;-61
2022/10/08 09:19:59;;;;;;;12.80;3.45;;;;;;;;;;5032796;28;20022;-61
2022/10/08 09:22:27;;;;;;;10.70;2.33;;;;;;;;;;5034220;28;20026;-61
2022/10/08 09:24:56;;;;;;;12.75;1.70;;;;;;;;;;5034323;28;20036;-61
2022/10/08 09:27:22;;;;;;;14.13;2.75;;;;;;;;;;5031908;28;20103;-61
2022/10/08 09:29:48;;;;;;;13.27;1.73;;;;;;;;;;5038325;28;20029;-61
2022/10/08 09:32:18;;;;;;;15.00;2.83;;;;;;;;;;5034862;28;20116;-61
2022/10/08 09:34:47;;;;;;;13.82;2.15;;;;;;;;;;5040966;28;20025;-61
2022/10/08 09:37:33;;;;;;;18.35;2.33;;;;;;;;;;5027261;28;20501;-61
2022/10/08 09:40:11;;;;;;;14.75;2.20;;;;;;;;;;5026239;28;20109;-61
2022/10/08 09:42:37;;;;;;;16.20;1.90;;;;;;;;;;5033950;28;20028;-61
2022/10/08 09:45:23;;;;;;;11.30;2.05;;;;;;;;;;5030627;28;20026;-61
2022/10/08 09:48:09;;;;;;;11.50;2.25;;;;;;;;;;5036440;28;20481;-62
2022/10/08 09:50:36;;;;;;;10.32;1.90;;;;;;;;;;5026086;28;20032;-61
2022/10/08 09:53:03;;;;;;;13.65;2.30;;;;;;;;;;5027243;28;20014;-61
2022/10/08 09:55:31;;;;;;;9.35;2.58;;;;;;;;;;5023507;28;20025;-61
2022/10/08 09:58:03;;;;;;;12.57;1.90;;;;;;;;;;5033598;28;20026;-61
2022/10/08 10:00:36;;;;;;;14.73;1.88;;;;;;;;;;5032961;28;20473;-62
2022/10/08 10:03:04;;;;;;;14.02;2.75;;;;;;;;;;5026427;28;20472;-63
2022/10/08 10:05:31;;;;;;;13.85;3.58;;;;;;;;;;5019809;28;20028;-62
2022/10/08 10:07:58;;;;;;;12.52;1.80;;;;;;;;;;5023678;28;20160;-62
2022/10/08 10:10:24;;;;;;;15.68;2.00;;;;;;;;;;5022490;28;20410;-61
2022/10/08 10:12:54;;;;;;;8.32;1.80;;;;;;;;;;5019828;28;20363;-61
2022/10/08 10:15:23;;;;;;;13.52;2.20;;;;;;;;;;5028814;28;20100;-61
2022/10/08 10:18:04;;;;;;;13.95;3.08;;;;;;;;;;5037828;28;20032;-61
2022/10/08 10:20:35;;;;;;;10.52;1.55;;;;;;;;;;5025416;28;20108;-61
2022/10/08 10:23:06;;;;;;;13.65;1.98;;;;;;;;;;5037173;28;20032;-61
2022/10/08 10:25:35;;;;;;;10.75;1.92;;;;;;;;;;5039097;28;20084;-61
2022/10/08 10:28:10;;;;;;;9.52;1.80;;;;;;;;;;5033991;28;20133;-61
2022/10/08 10:30:45;;;;;;;14.88;2.60;;;;;;;;;;5027843;28;20033;-61
2022/10/08 10:33:24;;;;;;;8.05;1.40;;;;;;;;;;5028578;28;20033;-61
2022/10/08 10:35:52;;;;;;;14.95;2.08;;;;;;;;;;5031877;28;20055;-61
2022/10/08 10:38:32;;;;;;;13.52;1.80;;;;;;;;;;5031998;28;20026;-62
2022/10/08 10:41:21;;;;;;;10.48;1.50;;;;;;;;;;5033839;28;20029;-61
2022/10/08 10:43:52;;;;;;;9.48;1.80;;;;;;;;;;5033196;28;20108;-61
2022/10/08 10:46:23;;;;;;;8.77;1.98;;;;;;;;;;5025620;28;20113;-61
2022/10/08 10:48:49;;;;;;;7.05;1.58;;;;;;;;;;5021155;28;20026;-61
2022/10/08 10:51:21;;;;;;;10.80;2.20;;;;;;;;;;5020217;28;20117;-61
2022/10/08 10:54:06;;;;;;;11.13;1.50;;;;;;;;;;5033276;28;20035;-61
2022/10/08 10:56:53;;;;;;;9.95;1.52;;;;;;;;;;5023556;28;20037;-61
2022/10/08 10:59:19;;;;;;;13.63;2.50;;;;;;;;;;5031557;28;20056;-61
2022/10/08 11:01:48;;;;;;;12.15;1.75;;;;;;;;;;5042633;28;20024;-61
2022/10/08 11:04:29;;;;;;;7.15;1.70;;;;;;;;;;5025908;28;20033;-61
2022/10/08 11:07:00;;;;;;;10.57;3.05;;;;;;;;;;5037580;28;20111;-61
2022/10/08 11:09:45;;;;;;;4.90;1.65;;;;;;;;;;5036992;28;20049;-61
2022/10/08 11:12:11;;;;;;;7.55;1.67;;;;;;;;;;5034446;28;20468;-61
2022/10/08 11:14:43;;;;;;;9.43;2.05;;;;;;;;;;5030367;28;20498;-61
2022/10/08 11:17:12;;;;;;;13.68;2.30;;;;;;;;;;5030642;28;20041;-61
2022/10/08 11:19:38;;;;;;;6.57;2.05;;;;;;;;;;5029239;28;20025;-61
2022/10/08 11:22:17;;;;;;;10.60;1.77;;;;;;;;;;5023561;28;20026;-61
2022/10/08 11:24:49;;;;;;;8.77;1.67;;;;;;;;;;5031916;28;20032;-61
2022/10/08 11:27:32;;;;;;;8.25;1.30;;;;;;;;;;5029881;28;20033;-61
2022/10/08 11:30:10;;;;;;;12.90;2.03;;;;;;;;;;5019608;28;20037;-61
2022/10/08 11:32:37;;;;;;;9.55;1.55;;;;;;;;;;5031605;28;20456;-61
2022/10/08 11:35:26;;;;;;;14.93;2.22;;;;;;;;;;5031467;28;20017;-61
2022/10/08 11:37:58;;;;;;;13.02;2.03;;;;;;;;;;5031392;28;20029;-61
2022/10/08 11:40:25;;;;;;;;;;;;;;;;;;5031025;28;20038;-61
2022/10/08 11:42:51;;;;;;;11.50;1.77;;;;;;;;;;5032303;28;19967;-61
2022/10/08 11:45:24;;;;;;;9.85;2.08;;;;;;;;;;5031623;28;20489;-61
2022/10/08 11:47:54;;;;;;;11.40;2.83;;;;;;;;;;5031824;28;20120;-61
2022/10/08 11:50:20;;;;;;;11.43;1.40;;;;;;;;;;5033165;28;20037;-61
2022/10/08 11:52:47;;;;;;;8.00;1.50;;;;;;;;;;5029969;28;20021;-61
2022/10/08 11:55:22;;;;;;;14.57;2.17;;;;;;;;;;5031246;28;20026;-61
2022/10/08 11:57:57;;;;;;;8.35;1.65;;;;;;;;;;5029803;28;20026;-61
2022/10/08 12:00:28;;;;;;;9.30;1.55;;;;;;;;;;5027514;28;20029;-61
2022/10/08 12:02:54;;;;;;;10.90;1.92;;;;;;;;;;5030004;28;20022;-61
2022/10/08 12:05:23;;;;;;;10.18;1.92;;;;;;;;;;5029782;28;20033;-61
2022/10/08 12:07:51;;;;;;;8.60;1.58;;;;;;;;;;5029945;28;20103;-61
2022/10/08 12:10:17;;;;;;;7.43;1.65;;;;;;;;;;5031553;28;20041;-61
2022/10/08 12:12:50;;;;;;;10.13;1.42;;;;;;;;;;5035031;28;20481;-61
2022/10/08 12:15:22;;;;;;;6.90;1.33;;;;;;;;;;5036122;28;20401;-61
2022/10/08 12:17:53;;;;;;;9.98;2.13;;;;;;;;;;5027743;28;20028;-61
2022/10/08 12:20:23;;;;;;;17.27;1.65;;;;;;;;;;5029962;28;20164;-61
2022/10/08 12:23:00;;;;;;;9.73;2.00;;;;;;;;;;5035312;28;20034;-61
2022/10/08 12:25:32;;;;;;;6.85;1.75;;;;;;;;;;5033380;28;20029;-61
2022/10/08 12:28:31;;;;;;;9.02;1.52;;;;;;;;;;5036126;28;22005;-61
2022/10/08 12:30:57;;;;;;;7.57;1.63;;;;;;;;;;5031677;28;20021;-61
2022/10/08 12:33:24;;;;;;;6.90;1.30;;;;;;;;;;5035108;28;20033;-61
2022/10/08 12:36:09;;;;;;;9.02;1.48;;;;;;;;;;5043078;28;20037;-61
2022/10/08 12:38:49;;;;;;;13.52;2.25;;;;;;;;;;5033178;28;20124;-61
2022/10/08 12:41:20;;;;;;;10.10;1.80;;;;;;;;;;5037895;28;20108;-61
2022/10/08 12:43:46;;;;;;;15.43;2.35;;;;;;;;;;5035159;28;20117;-61
2022/10/08 12:46:16;;;;;;;9.95;2.03;;;;;;;;;;5034107;28;20462;-61
2022/10/08 12:48:46;;;;;;;10.63;2.13;;;;;;;;;;5033750;28;20034;-61
2022/10/08 12:51:19;;;;;;;8.05;2.08;;;;;;;;;;5030303;28;20029;-61
2022/10/08 12:53:45;;;;;;;15.20;1.55;;;;;;;;;;5030850;28;20468;-61
2022/10/08 12:56:38;;;;;;;16.55;1.85;;;;;;;;;;5032004;28;20033;-61
2022/10/08 12:59:04;;;;;;;7.25;1.45;;;;;;;;;;5026207;28;20049;-61
2022/10/08 13:01:31;;;;;;;9.13;1.83;;;;;;;;;;5033996;28;20075;-61
2022/10/08 13:04:07;;;;;;;6.10;1.50;;;;;;;;;;5033823;28;20025;-61
2022/10/08 13:06:33;;;;;;;12.57;2.22;;;;;;;;;;5028518;28;20390;-61
2022/10/08 13:08:59;;;;;;;7.40;1.60;;;;;;;;;;5033476;28;20124;-63
2022/10/08 13:11:26;;;;;;;10.52;2.20;;;;;;;;;;5034410;28;20120;-63
2022/10/08 13:13:53;;;;;;;11.32;1.98;;;;;;;;;;5031578;28;20041;-63
2022/10/08 13:16:20;;;;;;;11.32;1.50;;;;;;;;;;5032353;28;20033;-63
2022/10/08 13:18:57;;;;;;;8.02;1.70;;;;;;;;;;5041140;28;20396;-63
2022/10/08 13:21:24;;;;;;;10.73;1.60;;;;;;;;;;5039767;28;20025;-63
2022/10/08 13:23:50;;;;;;;10.20;1.98;;;;;;;;;;5044594;28;20033;-63
2022/10/08 13:26:35;;;;;;;9.02;1.58;;;;;;;;;;5041061;28;20139;-63
2022/10/08 13:29:16;;;;;;;12.93;1.67;;;;;;;;;;5032026;28;20021;-63
2022/10/08 13:31:43;;;;;;;12.45;1.63;;;;;;;;;;5033917;28;20025;-63
2022/10/08 13:34:17;;;;;;;8.43;1.88;;;;;;;;;;5033709;28;20032;-63
2022/10/08 13:36:53;;;;;;;10.45;1.90;;;;;;;;;;5041624;28;20072;-63
2022/10/08 13:39:24;;;;;;;11.68;1.67;;;;;;;;;;5030731;28;20077;-63
2022/10/08 13:41:55;;;;;;;7.95;1.50;;;;;;;;;;5034044;28;20555;-63
2022/10/08 13:44:21;;;;;;;6.78;1.85;;;;;;;;;;5033958;28;20075;-63
2022/10/08 13:46:47;;;;;;;14.75;1.88;;;;;;;;;;5032364;28;20517;-63
2022/10/08 13:49:21;;;;;;;10.77;1.77;;;;;;;;;;5033850;28;20029;-63
2022/10/08 13:51:47;;;;;;;7.28;1.60;;;;;;;;;;5033844;28;20028;-63
2022/10/08 13:54:16;;;;;;;12.40;1.77;;;;;;;;;;5033807;28;20029;-63
2022/10/08 13:56:42;;;;;;;9.27;1.70;;;;;;;;;;5033369;28;20408;-63
2022/10/08 13:59:10;;;;;;;9.38;1.77;;;;;;;;;;5023876;28;20021;-63
2022/10/08 14:01:36;;;;;;;10.60;1.92;;;;;;;;;;5033228;28;20052;-63
2022/10/08 14:04:02;;;;;;;5.72;1.48;;;;;;;;;;5032247;28;20473;-63
2022/10/08 14:06:28;;;;;;;8.15;1.75;;;;;;;;;;5033325;28;20033;-63
2022/10/08 14:08:54;;;;;;;11.85;1.95;;;;;;;;;;5032623;28;20049;-63
2022/10/08 14:11:20;;;;;;;8.68;1.73;;;;;;;;;;5033222;28;20496;-63
2022/10/08 14:13:46;;;;;;;10.48;1.30;;;;;;;;;;5033375;28;20045;-63
2022/10/08 14:16:13;;;;;;;11.57;1.67;;;;;;;;;;5032343;28;20563;-63
2022/10/08 14:18:39;;;;;;;15.02;1.73;;;;;;;;;;5032706;28;20061;-63
2022/10/08 14:21:05;;;;;;;10.68;1.95;;;;;;;;;;5033156;28;20030;-63
2022/10/08 14:23:31;;;;;;;13.85;1.63;;;;;;;;;;5032995;28;20029;-63
2022/10/08 14:25:58;;;;;;;10.77;1.38;;;;;;;;;;5033562;28;20029;-63
2022/10/08 14:28:24;;;;;;;8.40;1.63;;;;;;;;;;5035336;28;20558;-63
2022/10/08 14:30:50;;;;;;;8.02;1.63;;;;;;;;;;5038894;28;20057;-63
2022/10/08 14:33:16;;;;;;;9.60;1.42;;;;;;;;;;5048489;28;20029;-63
2022/10/08 14:35:42;;;;;;;9.85;1.45;;;;;;;;;;5042639;28;20449;-63
2022/10/08 14:38:08;;;;;;;10.13;1.60;;;;;;;;;;5034807;28;20090;-63
2022/10/08 14:40:34;;;;;;;11.43;1.73;;;;;;;;;;5032552;28;20021;-63
2022/10/08 14:43:00;;;;;;;10.25;1.67;;;;;;;;;;5043112;28;20017;-63
2022/10/08 14:45:27;;;;;;;12.00;2.53;;;;;;;;;;5038480;28;20048;-63
2022/10/08 14:47:53;;;;;;;10.65;1.88;;;;;;;;;;5038620;28;20025;-63